Time;durP1;ratioP1;P1;durP2;ratioP2;P2;SDS_P1;SDS_P2;PMS_P1;PMS_P2;Temp;Humidity;BMP_temperature;BMP_pressure;BME280_temperature;BME280_humidity;BME280_pressure;Samples;Min_cycle;Max_cycle;Signal;HPM_P1;HPM_P2
2021/03/06 00:01:47;;;;;;;12.97;7.73;;;-0.80;99.90;;;;;;5053051;28;20466;-77
2021/03/06 00:04:13;;;;;;;9.73;5.23;;;-0.90;99.90;;;;;;5053411;28;20664;-79
2021/03/06 00:06:39;;;;;;;13.23;7.20;;;-0.90;99.90;;;;;;5047169;28;20056;-79
2021/03/06 00:09:06;;;;;;;12.00;6.97;;;-0.90;99.90;;;;;;5043151;28;20392;-79
2021/03/06 00:11:31;;;;;;;11.60;6.37;;;-0.90;99.90;;;;;;5042712;28;20363;-80
2021/03/06 00:13:57;;;;;;;10.83;5.73;;;-0.90;99.90;;;;;;5033175;28;20096;-78
2021/03/06 00:16:22;;;;;;;8.67;5.47;;;-0.90;99.90;;;;;;5048663;28;20500;-78
2021/03/06 00:18:48;;;;;;;11.37;6.30;;;-0.90;99.90;;;;;;5042530;28;20037;-78
2021/03/06 00:21:14;;;;;;;14.50;7.50;;;-0.90;99.90;;;;;;5034116;28;20028;-77
2021/03/06 00:23:39;;;;;;;8.67;4.43;;;-0.90;99.90;;;;;;5032925;28;20258;-77
2021/03/06 00:26:05;;;;;;;6.80;3.10;;;-0.90;99.90;;;;;;5049989;28;20056;-78
2021/03/06 00:28:30;;;;;;;9.37;5.17;;;-1.00;99.90;;;;;;5049290;28;20029;-78
2021/03/06 00:30:56;;;;;;;13.33;6.77;;;-1.00;99.90;;;;;;5051878;28;20049;-77
2021/03/06 00:33:22;;;;;;;11.53;5.70;;;-1.00;99.90;;;;;;5043093;28;20625;-78
2021/03/06 00:35:47;;;;;;;8.97;4.43;;;-1.00;99.90;;;;;;5050805;28;20021;-78
2021/03/06 00:38:14;;;;;;;8.43;4.63;;;-1.00;99.90;;;;;;5052320;28;20380;-78
2021/03/06 00:40:39;;;;;;;11.57;4.77;;;-1.00;99.90;;;;;;5051960;28;20135;-78
2021/03/06 00:43:05;;;;;;;10.87;5.93;;;-1.00;99.90;;;;;;5045975;28;20495;-78
2021/03/06 00:45:31;;;;;;;12.63;5.80;;;-1.00;99.90;;;;;;5049966;28;20025;-77
2021/03/06 00:47:56;;;;;;;11.30;5.73;;;-1.00;99.90;;;;;;5050512;28;20037;-77
2021/03/06 00:50:28;;;;;;;8.87;5.10;;;-1.00;99.90;;;;;;5051251;28;20033;-79
2021/03/06 00:52:54;;;;;;;10.27;5.87;;;-1.10;99.90;;;;;;5050429;28;20040;-79
2021/03/06 00:55:19;;;;;;;12.53;6.70;;;-1.00;99.90;;;;;;5040023;28;20029;-78
2021/03/06 00:57:45;;;;;;;10.93;6.47;;;-1.00;99.90;;;;;;5045115;28;20033;-77
2021/03/06 01:00:11;;;;;;;12.93;6.00;;;-1.00;99.90;;;;;;5051670;28;20041;-78
2021/03/06 01:02:37;;;;;;;13.20;6.63;;;-1.10;99.90;;;;;;5051078;28;20033;-79
2021/03/06 01:05:03;;;;;;;10.93;6.07;;;-1.10;99.90;;;;;;5052999;28;20044;-79
2021/03/06 01:07:29;;;;;;;12.27;7.40;;;-1.10;99.90;;;;;;5051173;28;20126;-77
2021/03/06 01:09:56;;;;;;;11.07;7.07;;;-1.10;99.90;;;;;;5040143;28;20084;-79
2021/03/06 01:12:21;;;;;;;9.33;5.20;;;-1.10;99.90;;;;;;5041481;28;20096;-78
2021/03/06 01:14:47;;;;;;;13.13;7.07;;;-1.10;99.90;;;;;;5037152;28;20033;-76
2021/03/06 01:17:13;;;;;;;13.13;6.90;;;-1.10;99.90;;;;;;5050978;28;20518;-77
2021/03/06 01:19:38;;;;;;;11.40;6.90;;;-1.10;99.90;;;;;;5050927;28;20037;-78
2021/03/06 01:22:04;;;;;;;14.33;7.63;;;-1.00;99.90;;;;;;5047192;28;20082;-79
2021/03/06 01:24:29;;;;;;;11.10;5.90;;;-1.00;99.90;;;;;;5049154;28;20036;-79
2021/03/06 01:26:55;;;;;;;13.13;7.40;;;-1.10;99.90;;;;;;5048852;28;20021;-78
2021/03/06 01:29:21;;;;;;;15.03;7.63;;;-1.10;99.90;;;;;;5041656;28;20103;-79
2021/03/06 01:31:47;;;;;;;11.13;5.87;;;-1.10;99.90;;;;;;5044040;28;20516;-77
2021/03/06 01:34:12;;;;;;;13.10;6.77;;;-1.00;99.90;;;;;;5041244;28;20121;-77
2021/03/06 01:36:38;;;;;;;15.43;7.43;;;-1.10;99.90;;;;;;5044813;28;20540;-77
2021/03/06 01:39:04;;;;;;;13.13;7.43;;;-1.00;99.90;;;;;;5041758;28;20021;-80
2021/03/06 01:41:29;;;;;;;15.60;7.80;;;-1.10;99.90;;;;;;5050881;28;20017;-78
2021/03/06 01:43:55;;;;;;;13.90;7.63;;;-1.00;99.90;;;;;;5060089;28;20049;-78
2021/03/06 01:46:21;;;;;;;12.73;5.80;;;-1.00;99.90;;;;;;5043545;28;20033;-79
2021/03/06 01:48:46;;;;;;;11.73;5.70;;;-1.00;99.90;;;;;;5040847;28;20025;-78
2021/03/06 01:51:12;;;;;;;12.63;6.20;;;-1.00;99.90;;;;;;5049644;28;20095;-79
2021/03/06 01:53:38;;;;;;;12.37;7.33;;;-1.10;99.90;;;;;;5048034;28;20485;-78
2021/03/06 01:56:04;;;;;;;13.73;7.63;;;-1.00;99.90;;;;;;5044775;28;20025;-79
2021/03/06 01:58:30;;;;;;;12.93;7.10;;;-1.00;99.90;;;;;;5050035;28;20178;-77
2021/03/06 02:00:55;;;;;;;14.17;7.77;;;-1.00;99.90;;;;;;5048544;28;20492;-79
2021/03/06 02:03:21;;;;;;;12.90;6.27;;;-1.00;99.90;;;;;;5043445;28;20033;-77
2021/03/06 02:05:47;;;;;;;12.10;6.30;;;-0.90;99.90;;;;;;5036051;28;20033;-77
2021/03/06 02:08:12;;;;;;;12.43;6.87;;;-0.90;99.90;;;;;;5037105;28;20582;-78
2021/03/06 02:10:42;;;;;;;12.43;7.73;;;-0.90;99.90;;;;;;5055094;28;20441;-77
2021/03/06 02:13:10;;;;;;;12.98;6.38;;;-0.90;99.90;;;;;;5051922;28;20442;-79
2021/03/06 02:15:45;;;;;;;11.57;7.23;;;-1.00;99.90;;;;;;5042410;28;20477;-77
2021/03/06 02:18:18;;;;;;;14.20;7.10;;;-1.00;99.90;;;;;;5049784;28;20033;-78
2021/03/06 02:21:00;;;;;;;12.07;6.23;;;-1.10;99.90;;;;;;5036062;28;20029;-78
2021/03/06 02:23:56;;;;;;;14.20;6.60;;;-1.10;99.90;;;;;;5049412;28;20056;-77
2021/03/06 02:26:27;;;;;;;12.80;7.07;;;-1.20;99.90;;;;;;5041018;28;20053;-77
2021/03/06 02:29:03;;;;;;;15.20;7.97;;;-1.20;99.90;;;;;;5047929;28;20041;-77
2021/03/06 02:31:32;;;;;;;13.57;6.50;;;-1.20;99.90;;;;;;5050145;28;20116;-77
2021/03/06 02:34:12;;;;;;;11.55;5.95;;;-1.20;99.90;;;;;;5043595;28;20061;-78
2021/03/06 02:36:46;;;;;;;12.43;6.93;;;-1.20;99.90;;;;;;5040817;28;20044;-78
2021/03/06 02:39:15;;;;;;;14.83;7.20;;;-1.30;99.90;;;;;;5049594;28;20021;-78
2021/03/06 02:41:42;;;;;;;13.90;7.80;;;-1.30;99.90;;;;;;5038459;28;20087;-78
2021/03/06 02:44:11;;;;;;;12.30;7.33;;;-1.30;99.90;;;;;;5042154;28;20021;-78
2021/03/06 02:46:37;;;;;;;14.50;7.10;;;-1.40;99.90;;;;;;5047813;28;20033;-78
2021/03/06 02:49:04;;;;;;;12.53;6.80;;;-1.40;99.90;;;;;;5049806;28;20033;-78
2021/03/06 02:51:40;;;;;;;14.60;8.10;;;-1.40;99.90;;;;;;5043809;28;20469;-78
2021/03/06 02:54:06;;;;;;;13.53;7.73;;;-1.40;99.90;;;;;;5048231;28;20033;-77
2021/03/06 02:56:34;;;;;;;15.30;7.80;;;-1.50;99.90;;;;;;5047270;28;20450;-78
2021/03/06 02:59:30;;;;;;;13.07;7.67;;;-1.50;99.90;;;;;;5049335;28;20064;-79
2021/03/06 03:02:24;;;;;;;14.00;8.00;;;-1.50;99.90;;;;;;5042458;28;20182;-78
2021/03/06 03:05:08;;;;;;;13.27;7.37;;;-1.50;99.90;;;;;;5034031;28;20068;-79
2021/03/06 03:07:53;;;;;;;14.80;7.07;;;-1.50;99.90;;;;;;5045669;28;20117;-79
2021/03/06 03:10:21;;;;;;;15.00;7.07;;;-1.60;99.90;;;;;;5048227;28;20041;-79
2021/03/06 03:12:54;;;;;;;12.60;6.40;;;-1.50;99.90;;;;;;5048505;28;20143;-78
2021/03/06 03:15:27;;;;;;;16.63;8.23;;;-1.60;99.90;;;;;;5069863;28;20045;-77
2021/03/06 03:17:56;;;;;;;12.23;5.40;;;-1.50;99.90;;;;;;5049791;28;20087;-80
2021/03/06 03:20:49;;;;;;;16.53;6.70;;;-1.60;99.90;;;;;;5045567;28;20514;-79
2021/03/06 03:23:26;;;;;;;14.53;7.00;;;-1.50;99.90;;;;;;5047294;28;20045;-79
2021/03/06 03:25:53;;;;;;;16.77;6.77;;;-1.60;99.90;;;;;;5035632;28;20429;-78
2021/03/06 03:28:21;;;;;;;10.37;4.87;;;-1.60;99.90;;;;;;5049570;28;20538;-79
2021/03/06 03:30:48;;;;;;;15.93;7.50;;;-1.60;99.90;;;;;;5042425;28;20072;-78
2021/03/06 03:33:15;;;;;;;14.73;7.20;;;-1.60;99.90;;;;;;5042030;28;20037;-79
2021/03/06 03:35:42;;;;;;;17.27;8.77;;;-1.60;99.90;;;;;;5051833;28;20161;-77
2021/03/06 03:38:09;;;;;;;14.80;8.27;;;-1.70;99.90;;;;;;5045096;28;20125;-78
2021/03/06 03:40:36;;;;;;;18.90;7.67;;;-1.70;99.90;;;;;;5045069;28;20092;-77
2021/03/06 03:43:02;;;;;;;12.63;6.93;;;-1.70;99.90;;;;;;5051350;28;20192;-78
2021/03/06 03:45:28;;;;;;;13.03;7.07;;;-1.70;99.90;;;;;;5053126;28;20059;-77
2021/03/06 03:47:55;;;;;;;9.37;5.20;;;-1.70;99.90;;;;;;5051601;28;20431;-81
2021/03/06 03:50:21;;;;;;;14.30;7.33;;;-1.80;99.90;;;;;;5050400;28;20036;-77
2021/03/06 03:52:50;;;;;;;14.00;7.70;;;-1.80;99.90;;;;;;5051782;28;20116;-79
2021/03/06 03:55:17;;;;;;;14.75;7.72;;;-1.80;99.90;;;;;;5047502;28;20086;-77
2021/03/06 03:57:47;;;;;;;15.27;7.80;;;-1.80;99.90;;;;;;5044911;28;20116;-78
2021/03/06 04:00:15;;;;;;;10.17;4.47;;;-1.80;99.90;;;;;;5046551;28;20022;-80
2021/03/06 04:02:41;;;;;;;14.33;6.37;;;-1.80;99.90;;;;;;5033353;28;20393;-77
2021/03/06 04:05:09;;;;;;;9.13;4.67;;;-1.80;99.90;;;;;;5049075;28;20120;-78
2021/03/06 04:07:51;;;;;;;12.03;6.30;;;-1.90;99.90;;;;;;5051369;28;20026;-78
2021/03/06 04:10:19;;;;;;;17.20;7.57;;;-1.80;99.90;;;;;;5040978;28;20119;-78
2021/03/06 04:12:46;;;;;;;16.37;8.10;;;-1.90;99.90;;;;;;5051634;28;20159;-78
2021/03/06 04:15:14;;;;;;;15.63;7.03;;;-1.90;99.90;;;;;;5055052;28;20072;-78
2021/03/06 04:17:41;;;;;;;15.80;8.07;;;-1.90;99.90;;;;;;5052295;28;20052;-77
2021/03/06 04:20:08;;;;;;;15.90;8.33;;;-1.90;99.90;;;;;;5057559;28;20088;-77
2021/03/06 04:22:34;;;;;;;18.53;8.43;;;-2.00;99.90;;;;;;5045548;28;20029;-80
2021/03/06 04:24:59;;;;;;;14.20;7.43;;;-2.00;99.90;;;;;;5042009;28;20033;-78
2021/03/06 04:27:25;;;;;;;15.40;8.47;;;-2.00;99.90;;;;;;5051112;28;20061;-78
2021/03/06 04:29:51;;;;;;;16.50;8.67;;;-2.00;99.90;;;;;;5050445;28;20116;-77
2021/03/06 04:32:17;;;;;;;12.53;7.20;;;-2.00;99.90;;;;;;5039781;28;20061;-79
2021/03/06 04:34:43;;;;;;;12.67;7.00;;;-2.00;99.90;;;;;;5043452;28;20108;-78
2021/03/06 04:37:10;;;;;;;16.60;9.03;;;-2.00;99.90;;;;;;5049570;28;20143;-80
2021/03/06 04:39:36;;;;;;;15.33;8.50;;;-2.10;99.90;;;;;;5052012;28;20139;-78
2021/03/06 04:42:02;;;;;;;14.70;8.30;;;-2.10;99.90;;;;;;5040868;28;20027;-79
2021/03/06 04:44:28;;;;;;;17.53;9.23;;;-2.00;99.90;;;;;;5051579;28;20472;-78
2021/03/06 04:46:55;;;;;;;17.23;8.90;;;-2.10;99.90;;;;;;5050175;28;20112;-78
2021/03/06 04:49:20;;;;;;;16.77;8.73;;;-2.10;99.90;;;;;;5051664;28;20045;-78
2021/03/06 04:51:46;;;;;;;15.50;8.23;;;-2.10;99.90;;;;;;5043961;28;20024;-79
2021/03/06 04:54:12;;;;;;;15.40;7.93;;;-2.10;99.90;;;;;;5046812;28;20437;-77
2021/03/06 04:56:37;;;;;;;14.60;8.27;;;-2.20;99.90;;;;;;5034208;28;20036;-78
2021/03/06 04:59:03;;;;;;;15.97;8.10;;;-2.20;99.90;;;;;;5052000;28;20107;-80
2021/03/06 05:01:29;;;;;;;15.60;8.63;;;-2.10;99.90;;;;;;5051302;28;20083;-77
2021/03/06 05:03:55;;;;;;;17.30;9.17;;;-2.20;99.90;;;;;;5049484;28;20040;-78
2021/03/06 05:06:20;;;;;;;15.83;8.23;;;-2.20;99.90;;;;;;5050662;28;20109;-78
2021/03/06 05:08:46;;;;;;;15.90;8.27;;;-2.20;99.90;;;;;;5050471;28;20064;-78
2021/03/06 05:11:12;;;;;;;18.50;9.23;;;-2.30;99.90;;;;;;5051560;28;20115;-77
2021/03/06 05:13:38;;;;;;;17.63;9.50;;;-2.30;99.90;;;;;;5042817;28;20041;-78
2021/03/06 05:16:04;;;;;;;15.03;8.57;;;-2.30;99.90;;;;;;5035101;28;20040;-79
2021/03/06 05:18:31;;;;;;;16.23;8.30;;;-2.30;99.90;;;;;;5051358;28;20055;-79
2021/03/06 05:20:57;;;;;;;17.27;8.13;;;-2.40;99.90;;;;;;5050596;28;20665;-78
2021/03/06 05:23:23;;;;;;;17.13;8.33;;;-2.40;99.90;;;;;;5050675;28;20055;-78
2021/03/06 05:25:49;;;;;;;16.40;8.43;;;-2.40;99.90;;;;;;5053552;28;20021;-78
2021/03/06 05:28:21;;;;;;;17.67;8.83;;;-2.40;99.90;;;;;;5039921;28;20029;-78
2021/03/06 05:30:47;;;;;;;17.87;9.00;;;-2.40;99.90;;;;;;5048737;28;20045;-78
2021/03/06 05:33:14;;;;;;;16.77;8.70;;;-2.40;99.90;;;;;;5050447;28;20056;-77
2021/03/06 05:35:40;;;;;;;17.23;7.90;;;-2.40;99.90;;;;;;5048577;28;20051;-77
2021/03/06 05:38:06;;;;;;;16.13;8.80;;;-2.40;99.90;;;;;;5038833;28;20569;-78
2021/03/06 05:40:37;;;;;;;17.43;8.23;;;-2.40;99.90;;;;;;5050547;28;20025;-77
2021/03/06 05:43:03;;;;;;;16.57;8.80;;;-2.40;99.90;;;;;;5036923;28;20167;-78
2021/03/06 05:45:30;;;;;;;14.87;8.10;;;-2.40;99.90;;;;;;5038732;28;20076;-77
2021/03/06 05:47:57;;;;;;;15.97;8.60;;;-2.40;99.90;;;;;;5046598;28;20035;-77
2021/03/06 05:50:23;;;;;;;13.27;6.43;;;-2.40;99.90;;;;;;5049896;28;20480;-78
2021/03/06 05:52:51;;;;;;;14.50;8.07;;;-2.40;99.90;;;;;;5041058;28;20055;-77
2021/03/06 05:55:18;;;;;;;13.77;8.03;;;-2.40;99.90;;;;;;5044615;28;20433;-78
2021/03/06 05:57:44;;;;;;;15.30;6.50;;;-2.40;99.90;;;;;;5049490;28;20028;-77
2021/03/06 06:00:14;;;;;;;15.57;7.30;;;-2.40;99.90;;;;;;5049628;28;20025;-78
2021/03/06 06:02:41;;;;;;;13.63;6.80;;;-2.40;99.90;;;;;;5049256;28;20213;-76
2021/03/06 06:05:08;;;;;;;14.30;8.07;;;-2.40;99.90;;;;;;5049769;28;20075;-81
2021/03/06 06:07:39;;;;;;;14.67;8.07;;;-2.40;99.90;;;;;;5038451;28;20381;-79
2021/03/06 06:10:06;;;;;;;10.80;5.33;;;-2.40;99.90;;;;;;5044237;28;20055;-78
2021/03/06 06:12:32;;;;;;;15.40;7.73;;;-2.30;99.90;;;;;;5048633;28;20087;-79
2021/03/06 06:14:58;;;;;;;14.97;8.03;;;-2.30;99.90;;;;;;5050795;28;20173;-79
2021/03/06 06:17:24;;;;;;;13.13;6.53;;;-2.30;99.90;;;;;;5049871;28;20060;-78
2021/03/06 06:19:50;;;;;;;12.63;6.63;;;-2.30;99.90;;;;;;5050508;28;20045;-78
2021/03/06 06:22:22;;;;;;;14.23;7.40;;;-2.30;99.90;;;;;;5035818;28;20025;-78
2021/03/06 06:24:52;;;;;;;17.27;7.97;;;-2.20;99.90;;;;;;5044706;28;20032;-78
2021/03/06 06:27:32;;;;;;;13.50;7.47;;;-2.20;99.90;;;;;;5050853;28;20025;-78
2021/03/06 06:29:59;;;;;;;12.93;6.20;;;-2.20;99.90;;;;;;5048948;28;20094;-77
2021/03/06 06:32:43;;;;;;;12.93;7.50;;;-2.10;99.90;;;;;;5050060;28;20029;-77
2021/03/06 06:35:11;;;;;;;11.80;6.30;;;-2.10;99.90;;;;;;5041998;28;20052;-78
2021/03/06 06:37:36;;;;;;;14.37;7.37;;;-2.10;99.90;;;;;;5029822;28;20037;-78
2021/03/06 06:40:20;;;;;;;13.97;7.10;;;-2.00;99.90;;;;;;5046539;28;20059;-79
2021/03/06 06:42:45;;;;;;;12.47;6.17;;;-2.00;99.90;;;;;;5040660;28;20032;-78
2021/03/06 06:45:12;;;;;;;11.23;6.03;;;-1.90;99.90;;;;;;5045733;28;20029;-78
2021/03/06 06:47:40;;;;;;;12.00;6.10;;;-1.90;99.90;;;;;;5049584;28;20036;-78
2021/03/06 06:50:08;;;;;;;12.73;7.07;;;-1.80;99.90;;;;;;5052297;28;22113;-78
2021/03/06 06:52:44;;;;;;;12.13;6.47;;;-1.80;99.90;;;;;;5053368;28;20029;-78
2021/03/06 06:55:12;;;;;;;12.23;6.47;;;-1.70;99.90;;;;;;5047000;28;20032;-78
2021/03/06 06:57:51;;;;;;;6.90;3.67;;;-1.60;99.90;;;;;;5050242;28;20124;-78
2021/03/06 07:00:18;;;;;;;9.40;5.00;;;-1.60;99.90;;;;;;5044491;28;20029;-78
2021/03/06 07:02:58;;;;;;;12.83;6.50;;;-1.60;99.90;;;;;;5046095;28;20032;-80
2021/03/06 07:05:38;;;;;;;9.10;5.60;;;-1.50;99.90;;;;;;5048761;28;20044;-77
2021/03/06 07:08:19;;;;;;;10.30;5.50;;;-1.40;99.90;;;;;;5053735;28;20146;-79
2021/03/06 07:10:45;;;;;;;10.40;5.97;;;-1.50;99.90;;;;;;5042920;28;20053;-79
2021/03/06 07:13:11;;;;;;;8.37;4.43;;;-1.40;99.90;;;;;;5040592;28;20500;-79
2021/03/06 07:15:39;;;;;;;10.80;5.70;;;-1.40;99.90;;;;;;5047072;28;20029;-76
2021/03/06 07:18:09;;;;;;;11.03;6.00;;;-1.20;99.90;;;;;;5053361;28;20094;-76
2021/03/06 07:20:38;;;;;;;9.87;6.43;;;-1.10;99.90;;;;;;5052284;28;20124;-75
2021/03/06 07:23:23;;;;;;;10.80;6.50;;;-1.10;99.90;;;;;;5051788;28;20082;-75
2021/03/06 07:25:51;;;;;;;12.00;6.03;;;-1.00;99.90;;;;;;5050366;28;20108;-76
2021/03/06 07:28:17;;;;;;;11.10;6.50;;;-0.90;99.90;;;;;;5050344;28;20025;-78
2021/03/06 07:30:43;;;;;;;9.60;5.13;;;-0.90;99.90;;;;;;5052237;28;20049;-78
2021/03/06 07:33:12;;;;;;;5.20;3.13;;;-1.00;99.90;;;;;;5039269;28;20489;-79
2021/03/06 07:35:41;;;;;;;9.70;5.20;;;-0.90;99.90;;;;;;5045216;28;20033;-79
2021/03/06 07:38:09;;;;;;;10.07;5.63;;;-0.90;99.90;;;;;;5054181;28;20078;-80
2021/03/06 07:40:38;;;;;;;10.33;5.10;;;-0.80;99.90;;;;;;5052907;28;20083;-78
2021/03/06 07:43:12;;;;;;;10.87;5.90;;;-0.80;99.90;;;;;;5047863;28;20437;-78
2021/03/06 07:45:41;;;;;;;11.07;5.47;;;-0.60;99.90;;;;;;5046834;28;20048;-80
2021/03/06 07:48:12;;;;;;;9.35;4.88;;;-0.50;99.90;;;;;;5042636;28;20025;-77
2021/03/06 07:50:40;;;;;;;11.20;4.63;;;-0.40;99.90;;;;;;5042160;28;20053;-78
2021/03/06 07:53:07;;;;;;;8.37;4.70;;;-0.40;99.90;;;;;;5045557;28;20036;-79
2021/03/06 07:55:35;;;;;;;7.53;4.53;;;-0.30;99.90;;;;;;5040963;28;21655;-78
2021/03/06 07:58:18;;;;;;;7.37;4.07;;;-0.30;99.90;;;;;;5045076;28;20032;-76
2021/03/06 08:00:45;;;;;;;8.13;3.97;;;-0.30;99.90;;;;;;5041931;28;20029;-76
2021/03/06 08:03:30;;;;;;;10.43;4.83;;;-0.30;99.90;;;;;;5051322;28;20365;-77
2021/03/06 08:05:58;;;;;;;8.57;4.67;;;-0.20;99.90;;;;;;5042261;28;20404;-77
2021/03/06 08:08:32;;;;;;;8.23;4.17;;;-0.10;99.90;;;;;;5041446;28;20409;-78
2021/03/06 08:11:13;;;;;;;5.83;3.60;;;0.00;99.90;;;;;;5050698;28;20068;-77
2021/03/06 08:13:47;;;;;;;7.80;4.73;;;0.20;99.90;;;;;;5046601;28;20116;-79
2021/03/06 08:16:25;;;;;;;8.70;4.47;;;0.30;99.90;;;;;;5041875;28;20532;-77
2021/03/06 08:18:52;;;;;;;7.27;4.13;;;0.50;99.90;;;;;;5032357;28;20132;-77
2021/03/06 08:21:41;;;;;;;9.60;4.90;;;0.50;99.90;;;;;;5041412;28;20026;-78
2021/03/06 08:24:16;;;;;;;7.45;4.65;;;0.50;99.90;;;;;;5042409;28;20806;-77
2021/03/06 08:27:02;;;;;;;6.73;3.37;;;0.50;99.90;;;;;;5039647;28;20094;-77
2021/03/06 08:29:31;;;;;;;7.37;4.40;;;0.60;99.90;;;;;;5044231;28;20128;-85
2021/03/06 08:32:07;;;;;;;9.23;4.53;;;0.60;99.90;;;;;;5039801;28;20480;-83
2021/03/06 08:34:46;;;;;;;5.73;3.53;;;0.70;99.90;;;;;;5033186;28;20048;-86
2021/03/06 08:37:20;;;;;;;7.33;3.67;;;0.70;99.90;;;;;;5041359;28;20029;-83
2021/03/06 08:39:48;;;;;;;7.77;4.20;;;0.70;99.90;;;;;;5052593;28;20029;-82
2021/03/06 08:42:26;;;;;;;7.93;3.37;;;0.80;99.90;;;;;;5049490;28;20025;-82
2021/03/06 08:44:53;;;;;;;6.27;3.10;;;0.80;99.90;;;;;;5051049;28;20025;-82
2021/03/06 08:47:25;;;;;;;8.40;4.33;;;0.70;99.90;;;;;;5034406;28;20022;-82
2021/03/06 08:49:59;;;;;;;5.03;2.63;;;0.70;99.90;;;;;;5044269;28;20072;-82
2021/03/06 08:52:29;;;;;;;8.37;4.00;;;0.80;99.90;;;;;;5033517;28;20025;-84
2021/03/06 08:54:56;;;;;;;8.48;4.25;;;0.80;99.90;;;;;;5030603;28;21697;-84
2021/03/06 08:57:27;;;;;;;6.27;3.90;;;1.00;99.90;;;;;;5040052;28;20052;-86
2021/03/06 08:59:54;;;;;;;7.20;3.63;;;1.10;99.90;;;;;;5037240;28;20051;-84
2021/03/06 09:02:31;;;;;;;8.13;3.97;;;1.20;99.90;;;;;;5044816;28;20191;-83
2021/03/06 09:05:24;;;;;;;6.57;3.43;;;1.20;99.90;;;;;;5039880;28;20376;-84
2021/03/06 09:07:52;;;;;;;3.23;1.93;;;1.20;99.90;;;;;;5036217;28;20029;-83
2021/03/06 09:10:26;;;;;;;5.53;2.60;;;1.20;99.90;;;;;;5036027;28;20033;-84
2021/03/06 09:13:17;;;;;;;6.43;3.43;;;1.10;99.90;;;;;;5037635;28;20483;-82
2021/03/06 09:15:52;;;;;;;4.43;2.77;;;1.20;99.90;;;;;;5035813;28;20511;-86
2021/03/06 09:18:19;;;;;;;8.33;4.07;;;1.30;99.90;;;;;;5038505;28;20417;-83
2021/03/06 09:20:58;;;;;;;9.10;5.10;;;1.20;99.90;;;;;;5039928;28;20428;-82
2021/03/06 09:23:40;;;;;;;7.50;3.63;;;1.50;99.90;;;;;;5044107;28;20033;-84
2021/03/06 09:26:12;;;;;;;7.90;4.23;;;1.60;99.90;;;;;;5042252;28;20041;-82
2021/03/06 09:28:37;;;;;;;7.53;4.53;;;1.50;99.90;;;;;;5059412;28;20105;-83
2021/03/06 09:31:10;;;;;;;7.93;4.37;;;1.60;99.90;;;;;;5041589;28;20156;-84
2021/03/06 09:33:38;;;;;;;11.83;5.07;;;1.60;99.90;;;;;;5038465;28;20775;-86
2021/03/06 09:36:07;;;;;;;7.70;3.57;;;1.90;99.90;;;;;;5042787;28;20025;-83
2021/03/06 09:38:41;;;;;;;4.57;2.33;;;1.80;99.90;;;;;;5039784;28;20344;-83
2021/03/06 09:41:08;;;;;;;8.07;4.63;;;1.50;99.90;;;;;;5040085;28;20116;-85
2021/03/06 09:43:37;;;;;;;7.40;4.03;;;1.60;99.90;;;;;;5056707;28;20005;-84
2021/03/06 09:46:18;;;;;;;8.97;5.17;;;1.80;99.90;;;;;;5058840;28;20059;-83
2021/03/06 09:49:01;;;;;;;8.23;4.80;;;2.00;99.90;;;;;;5043503;28;20029;-83
2021/03/06 09:51:51;;;;;;;7.90;4.67;;;2.20;99.90;;;;;;5036091;28;20105;-82
2021/03/06 09:54:17;;;;;;;;;;;2.40;99.90;;;;;;5040802;28;20037;-85
2021/03/06 09:56:51;;;;;;;7.40;4.30;;;2.10;99.90;;;;;;5040936;28;19912;-85
2021/03/06 09:59:18;;;;;;;8.63;4.60;;;2.30;99.90;;;;;;5044344;28;20144;-83
2021/03/06 10:01:43;;;;;;;8.20;4.63;;;2.30;99.90;;;;;;5036915;28;20029;-83
2021/03/06 10:04:10;;;;;;;8.30;5.33;;;2.50;99.90;;;;;;5039675;28;20041;-84
2021/03/06 10:06:38;;;;;;;9.13;5.00;;;2.60;99.90;;;;;;5057036;28;20087;-82
2021/03/06 10:09:06;;;;;;;8.13;5.07;;;2.70;99.90;;;;;;5043151;28;20033;-85
2021/03/06 10:11:33;;;;;;;7.77;5.43;;;2.70;99.90;;;;;;5039206;28;20029;-82
2021/03/06 10:14:00;;;;;;;8.43;5.13;;;2.80;99.90;;;;;;5041981;28;20148;-83
2021/03/06 10:16:26;;;;;;;8.07;5.00;;;2.80;99.90;;;;;;5036712;28;20140;-84
2021/03/06 10:18:52;;;;;;;10.33;4.73;;;2.90;99.90;;;;;;5043381;28;20515;-84
2021/03/06 10:21:23;;;;;;;9.60;5.70;;;2.80;99.90;;;;;;5039334;28;20031;-84
2021/03/06 10:23:50;;;;;;;8.63;5.67;;;3.00;99.90;;;;;;5040316;28;20391;-84
2021/03/06 10:26:26;;;;;;;9.27;5.50;;;3.10;99.90;;;;;;5039784;28;20017;-84
2021/03/06 10:28:56;;;;;;;9.55;5.30;;;3.10;99.90;;;;;;5051177;28;20048;-85
2021/03/06 10:31:40;;;;;;;7.70;4.53;;;3.20;99.90;;;;;;5042546;28;20021;-86
2021/03/06 10:34:21;;;;;;;7.43;4.45;;;3.00;99.90;;;;;;5044626;28;20381;-85
2021/03/06 10:37:10;;;;;;;6.90;3.20;;;3.00;99.90;;;;;;5045734;28;20078;-83
2021/03/06 10:39:56;;;;;;;10.33;6.27;;;2.80;99.90;;;;;;5049369;28;20074;-85
2021/03/06 10:42:23;;;;;;;8.17;4.67;;;3.10;99.90;;;;;;5051429;28;20087;-85
2021/03/06 10:44:51;;;;;;;7.03;2.97;;;3.00;99.90;;;;;;5045538;28;20041;-80
2021/03/06 10:47:16;;;;;;;7.70;3.90;;;2.60;99.90;;;;;;5052798;28;20029;-86
2021/03/06 10:49:49;;;;;;;7.30;4.80;;;2.50;99.90;;;;;;5049862;28;20020;-85
2021/03/06 10:52:29;;;;;;;9.00;5.40;;;2.70;99.90;;;;;;5059222;28;20033;-85
2021/03/06 10:54:57;;;;;;;7.33;4.33;;;2.80;99.90;;;;;;5048514;28;20384;-84
2021/03/06 10:57:26;;;;;;;8.03;4.43;;;2.90;99.90;;;;;;5046569;28;20036;-83
2021/03/06 10:59:53;;;;;;;9.87;5.13;;;3.10;99.90;;;;;;5039322;28;20068;-83
2021/03/06 11:02:31;;;;;;;9.47;4.80;;;3.40;99.90;;;;;;5047817;28;20035;-85
2021/03/06 11:05:19;;;;;;;9.27;4.87;;;3.30;99.90;;;;;;5048325;28;20022;-79
2021/03/06 11:07:45;;;;;;;6.13;2.30;;;3.30;99.90;;;;;;5050345;28;20396;-83
2021/03/06 11:10:12;;;;;;;8.33;4.87;;;2.90;99.90;;;;;;5043487;28;20036;-84
2021/03/06 11:12:38;;;;;;;8.00;4.47;;;3.00;99.90;;;;;;5049481;28;20508;-83
2021/03/06 11:15:14;;;;;;;7.40;4.00;;;3.10;99.90;;;;;;5041569;28;20021;-79
2021/03/06 11:17:42;;;;;;;8.67;4.67;;;3.30;99.90;;;;;;5047604;28;20053;-83
2021/03/06 11:20:09;;;;;;;7.93;4.47;;;3.50;99.90;;;;;;5041086;28;20032;-84
2021/03/06 11:22:36;;;;;;;6.40;3.70;;;3.50;99.90;;;;;;5043931;28;20039;-85
2021/03/06 11:25:02;;;;;;;8.17;5.07;;;3.50;99.90;;;;;;5042967;28;20029;-83
2021/03/06 11:27:28;;;;;;;11.10;4.30;;;3.40;99.90;;;;;;5048320;28;20079;-83
2021/03/06 11:29:54;;;;;;;7.73;3.73;;;3.20;99.90;;;;;;5045073;28;20053;-84
2021/03/06 11:32:21;;;;;;;5.33;2.67;;;3.40;99.90;;;;;;5041291;28;20174;-84
2021/03/06 11:34:47;;;;;;;6.83;3.27;;;3.20;99.90;;;;;;5046566;28;20124;-85
2021/03/06 11:37:13;;;;;;;3.40;1.88;;;3.60;99.90;;;;;;5042004;28;20071;-83
2021/03/06 11:39:38;;;;;;;7.67;4.50;;;3.40;99.90;;;;;;5045824;28;20033;-85
2021/03/06 11:42:07;;;;;;;8.47;5.20;;;3.60;99.90;;;;;;5042875;28;20056;-84
2021/03/06 11:44:34;;;;;;;10.20;4.88;;;3.60;99.90;;;;;;5042092;28;20108;-83
2021/03/06 11:47:00;;;;;;;6.20;3.57;;;3.50;99.90;;;;;;5044821;28;20039;-81
2021/03/06 11:49:25;;;;;;;8.25;4.45;;;3.40;99.90;;;;;;5043033;28;20025;-84
2021/03/06 11:51:51;;;;;;;4.43;2.80;;;3.70;99.90;;;;;;5042130;28;20124;-84
2021/03/06 11:54:19;;;;;;;4.75;2.80;;;3.80;99.90;;;;;;5047891;28;20052;-82
2021/03/06 11:56:45;;;;;;;4.47;2.20;;;3.60;99.90;;;;;;5065607;28;20056;-86
2021/03/06 11:59:11;;;;;;;6.53;4.13;;;3.30;99.90;;;;;;5055274;28;20046;-87
2021/03/06 12:01:36;;;;;;;6.87;2.70;;;3.60;99.90;;;;;;5047349;28;20053;-90
2021/03/06 12:04:02;;;;;;;6.63;3.50;;;3.60;99.90;;;;;;5039822;28;20029;-85
2021/03/06 12:06:27;;;;;;;7.70;5.07;;;3.50;99.90;;;;;;5058421;28;20040;-84
2021/03/06 12:08:53;;;;;;;4.77;2.90;;;3.60;99.90;;;;;;5041819;28;20039;-82
2021/03/06 12:11:19;;;;;;;8.40;4.55;;;3.80;99.90;;;;;;5041750;28;20084;-83
2021/03/06 12:13:47;;;;;;;5.63;2.70;;;3.90;99.90;;;;;;5040213;28;20148;-85
2021/03/06 12:16:12;;;;;;;7.13;4.28;;;3.90;99.90;;;;;;5049582;28;20438;-79
2021/03/06 12:18:51;;;;;;;5.72;3.55;;;3.70;99.90;;;;;;5047609;28;20037;-88
2021/03/06 12:21:17;;;;;;;8.10;3.93;;;3.60;99.90;;;;;;5044577;28;20464;-82
2021/03/06 12:23:43;;;;;;;5.07;2.20;;;3.90;99.90;;;;;;5041204;28;20042;-84
2021/03/06 12:26:08;;;;;;;7.38;2.53;;;3.80;99.90;;;;;;5041252;28;20040;-83
2021/03/06 12:28:34;;;;;;;7.45;4.88;;;3.90;99.90;;;;;;5046945;28;20040;-82
2021/03/06 12:31:00;;;;;;;6.53;3.40;;;3.90;99.90;;;;;;5049646;28;20033;-85
2021/03/06 12:33:26;;;;;;;3.55;1.83;;;3.80;99.90;;;;;;5041951;28;20037;-83
2021/03/06 12:35:51;;;;;;;4.43;2.80;;;3.80;99.90;;;;;;5045284;28;20026;-84
2021/03/06 12:38:17;;;;;;;7.25;4.55;;;4.10;99.90;;;;;;5042567;28;20597;-80
2021/03/06 12:40:43;;;;;;;6.90;4.53;;;4.40;99.90;;;;;;5042118;28;20426;-83
2021/03/06 12:43:08;;;;;;;4.70;2.57;;;4.10;99.90;;;;;;5043470;28;20033;-81
2021/03/06 12:45:35;;;;;;;10.50;4.90;;;4.00;99.90;;;;;;5047449;28;20103;-78
2021/03/06 12:48:01;;;;;;;5.57;2.00;;;4.00;99.90;;;;;;5034157;28;20030;-77
2021/03/06 12:50:27;;;;;;;7.45;4.43;;;4.00;99.90;;;;;;5046916;28;20029;-77
2021/03/06 12:55:18;;;;;;;8.25;4.97;;;4.50;99.90;;;;;;5047808;28;20071;-79
2021/03/06 12:57:44;;;;;;;11.20;5.60;;;4.60;99.90;;;;;;5042554;28;20036;-79
2021/03/06 13:00:10;;;;;;;8.77;3.70;;;4.80;99.90;;;;;;5046167;28;20043;-80